sensor_id;sensor_type;location;lat;lon;timestamp;temperature;humidity
43772;HTU21D;59066;54.782;32.024;2023-04-21T00:00:59;10.43;30.90
43772;HTU21D;59066;54.782;32.024;2023-04-21T00:03:30;10.37;31.09
43772;HTU21D;59066;54.782;32.024;2023-04-21T00:06:00;10.36;31.18
43772;HTU21D;59066;54.782;32.024;2023-04-21T00:08:28;10.34;31.22
43772;HTU21D;59066;54.782;32.024;2023-04-21T00:10:56;10.27;31.40
43772;HTU21D;59066;54.782;32.024;2023-04-21T00:13:24;10.21;31.72
43772;HTU21D;59066;54.782;32.024;2023-04-21T00:15:53;10.10;31.96
43772;HTU21D;59066;54.782;32.024;2023-04-21T00:18:21;10.06;32.02
43772;HTU21D;59066;54.782;32.024;2023-04-21T00:20:49;10.05;32.02
43772;HTU21D;59066;54.782;32.024;2023-04-21T00:23:17;10.00;31.96
43772;HTU21D;59066;54.782;32.024;2023-04-21T00:25:45;10.00;31.94
43772;HTU21D;59066;54.782;32.024;2023-04-21T00:28:13;10.06;31.92
43772;HTU21D;59066;54.782;32.024;2023-04-21T00:30:40;10.03;32.02
43772;HTU21D;59066;54.782;32.024;2023-04-21T00:33:08;9.96;32.19
43772;HTU21D;59066;54.782;32.024;2023-04-21T00:35:36;9.91;32.49
43772;HTU21D;59066;54.782;32.024;2023-04-21T00:38:03;9.90;32.50
43772;HTU21D;59066;54.782;32.024;2023-04-21T00:40:31;9.85;32.67
43772;HTU21D;59066;54.782;32.024;2023-04-21T00:42:59;9.77;32.70
43772;HTU21D;59066;54.782;32.024;2023-04-21T00:45:27;9.82;32.53
43772;HTU21D;59066;54.782;32.024;2023-04-21T00:47:55;9.88;32.47
43772;HTU21D;59066;54.782;32.024;2023-04-21T00:50:23;9.88;32.48
43772;HTU21D;59066;54.782;32.024;2023-04-21T00:52:51;9.88;32.50
43772;HTU21D;59066;54.782;32.024;2023-04-21T00:55:19;9.89;32.53
43772;HTU21D;59066;54.782;32.024;2023-04-21T00:57:48;9.85;32.64
43772;HTU21D;59066;54.782;32.024;2023-04-21T01:00:17;9.83;32.59
43772;HTU21D;59066;54.782;32.024;2023-04-21T01:02:45;9.80;32.67
43772;HTU21D;59066;54.782;32.024;2023-04-21T01:05:13;9.77;32.69
43772;HTU21D;59066;54.782;32.024;2023-04-21T01:07:43;9.72;32.78
43772;HTU21D;59066;54.782;32.024;2023-04-21T01:10:11;9.75;32.79
43772;HTU21D;59066;54.782;32.024;2023-04-21T01:12:46;9.70;33.00
43772;HTU21D;59066;54.782;32.024;2023-04-21T01:15:15;9.68;32.96
43772;HTU21D;59066;54.782;32.024;2023-04-21T01:17:43;9.66;32.84
43772;HTU21D;59066;54.782;32.024;2023-04-21T01:20:14;9.65;33.01
43772;HTU21D;59066;54.782;32.024;2023-04-21T01:22:42;9.62;33.01
43772;HTU21D;59066;54.782;32.024;2023-04-21T01:25:11;9.61;33.06
43772;HTU21D;59066;54.782;32.024;2023-04-21T01:27:38;9.60;33.02
43772;HTU21D;59066;54.782;32.024;2023-04-21T01:30:07;9.56;33.03
43772;HTU21D;59066;54.782;32.024;2023-04-21T01:32:36;9.57;32.94
43772;HTU21D;59066;54.782;32.024;2023-04-21T01:35:04;9.54;33.01
43772;HTU21D;59066;54.782;32.024;2023-04-21T01:37:33;9.55;33.01
43772;HTU21D;59066;54.782;32.024;2023-04-21T01:40:03;9.57;33.02
43772;HTU21D;59066;54.782;32.024;2023-04-21T01:42:32;9.53;33.10
43772;HTU21D;59066;54.782;32.024;2023-04-21T01:45:01;9.47;33.09
43772;HTU21D;59066;54.782;32.024;2023-04-21T01:47:29;9.44;33.11
43772;HTU21D;59066;54.782;32.024;2023-04-21T01:49:57;9.42;33.13
43772;HTU21D;59066;54.782;32.024;2023-04-21T01:52:24;9.39;33.39
43772;HTU21D;59066;54.782;32.024;2023-04-21T01:54:53;9.33;33.54
43772;HTU21D;59066;54.782;32.024;2023-04-21T01:57:21;9.27;33.51
43772;HTU21D;59066;54.782;32.024;2023-04-21T01:59:49;9.23;33.57
43772;HTU21D;59066;54.782;32.024;2023-04-21T02:02:17;9.23;33.60
43772;HTU21D;59066;54.782;32.024;2023-04-21T02:04:45;9.22;33.63
43772;HTU21D;59066;54.782;32.024;2023-04-21T02:07:12;9.19;33.69
43772;HTU21D;59066;54.782;32.024;2023-04-21T02:09:40;9.14;33.73
43772;HTU21D;59066;54.782;32.024;2023-04-21T02:12:08;9.09;33.86
43772;HTU21D;59066;54.782;32.024;2023-04-21T02:14:36;9.06;33.88
43772;HTU21D;59066;54.782;32.024;2023-04-21T02:17:06;9.07;33.84
43772;HTU21D;59066;54.782;32.024;2023-04-21T02:19:33;9.05;33.90
43772;HTU21D;59066;54.782;32.024;2023-04-21T02:22:01;9.04;33.89
43772;HTU21D;59066;54.782;32.024;2023-04-21T02:24:30;9.01;33.92
43772;HTU21D;59066;54.782;32.024;2023-04-21T02:26:57;9.00;34.02
43772;HTU21D;59066;54.782;32.024;2023-04-21T02:29:27;8.96;34.19
43772;HTU21D;59066;54.782;32.024;2023-04-21T02:31:55;8.96;34.18
43772;HTU21D;59066;54.782;32.024;2023-04-21T02:34:31;8.93;34.12
43772;HTU21D;59066;54.782;32.024;2023-04-21T02:36:58;8.94;34.08
43772;HTU21D;59066;54.782;32.024;2023-04-21T02:39:26;8.93;34.12
43772;HTU21D;59066;54.782;32.024;2023-04-21T02:41:54;8.91;34.14
43772;HTU21D;59066;54.782;32.024;2023-04-21T02:44:22;8.89;34.21
43772;HTU21D;59066;54.782;32.024;2023-04-21T02:46:49;8.86;34.29
43772;HTU21D;59066;54.782;32.024;2023-04-21T02:49:17;8.82;34.30
43772;HTU21D;59066;54.782;32.024;2023-04-21T02:51:44;8.79;34.31
43772;HTU21D;59066;54.782;32.024;2023-04-21T02:54:12;8.82;34.31
43772;HTU21D;59066;54.782;32.024;2023-04-21T02:56:40;8.81;34.41
43772;HTU21D;59066;54.782;32.024;2023-04-21T02:59:07;8.81;34.42
43772;HTU21D;59066;54.782;32.024;2023-04-21T03:01:38;8.77;34.46
43772;HTU21D;59066;54.782;32.024;2023-04-21T03:04:07;8.78;34.44
43772;HTU21D;59066;54.782;32.024;2023-04-21T03:06:37;8.77;34.52
43772;HTU21D;59066;54.782;32.024;2023-04-21T03:09:04;8.74;34.63
43772;HTU21D;59066;54.782;32.024;2023-04-21T03:11:32;8.75;34.66
43772;HTU21D;59066;54.782;32.024;2023-04-21T03:13:59;8.72;34.75
43772;HTU21D;59066;54.782;32.024;2023-04-21T03:16:27;8.73;34.77
43772;HTU21D;59066;54.782;32.024;2023-04-21T03:18:55;8.71;34.78
43772;HTU21D;59066;54.782;32.024;2023-04-21T03:21:23;8.68;34.78
43772;HTU21D;59066;54.782;32.024;2023-04-21T03:23:52;8.70;34.77
43772;HTU21D;59066;54.782;32.024;2023-04-21T03:26:19;8.73;34.78
43772;HTU21D;59066;54.782;32.024;2023-04-21T03:28:47;8.71;34.84
43772;HTU21D;59066;54.782;32.024;2023-04-21T03:31:14;8.75;34.80
43772;HTU21D;59066;54.782;32.024;2023-04-21T03:33:42;8.76;34.75
43772;HTU21D;59066;54.782;32.024;2023-04-21T03:36:09;8.77;34.82
43772;HTU21D;59066;54.782;32.024;2023-04-21T03:38:37;8.80;34.80
43772;HTU21D;59066;54.782;32.024;2023-04-21T03:41:05;8.81;34.80
43772;HTU21D;59066;54.782;32.024;2023-04-21T03:43:32;8.79;34.84
43772;HTU21D;59066;54.782;32.024;2023-04-21T03:46:00;8.83;34.82
43772;HTU21D;59066;54.782;32.024;2023-04-21T03:48:27;8.87;34.75
43772;HTU21D;59066;54.782;32.024;2023-04-21T03:50:55;8.88;34.77
43772;HTU21D;59066;54.782;32.024;2023-04-21T03:53:23;8.90;34.79
43772;HTU21D;59066;54.782;32.024;2023-04-21T03:55:51;8.93;34.72
43772;HTU21D;59066;54.782;32.024;2023-04-21T03:58:18;8.97;34.66
43772;HTU21D;59066;54.782;32.024;2023-04-21T04:00:46;9.00;34.67
43772;HTU21D;59066;54.782;32.024;2023-04-21T04:03:14;9.03;34.67
43772;HTU21D;59066;54.782;32.024;2023-04-21T04:05:41;9.06;34.61
43772;HTU21D;59066;54.782;32.024;2023-04-21T04:08:09;9.11;34.58
43772;HTU21D;59066;54.782;32.024;2023-04-21T04:10:36;9.14;34.55
43772;HTU21D;59066;54.782;32.024;2023-04-21T04:13:04;9.14;34.61
43772;HTU21D;59066;54.782;32.024;2023-04-21T04:15:31;9.18;34.58
43772;HTU21D;59066;54.782;32.024;2023-04-21T04:17:59;9.21;34.53
43772;HTU21D;59066;54.782;32.024;2023-04-21T04:20:28;9.24;34.56
43772;HTU21D;59066;54.782;32.024;2023-04-21T04:22:56;9.29;34.53
43772;HTU21D;59066;54.782;32.024;2023-04-21T04:25:24;9.33;34.55
43772;HTU21D;59066;54.782;32.024;2023-04-21T04:27:51;9.41;34.39
43772;HTU21D;59066;54.782;32.024;2023-04-21T04:30:20;9.46;34.37
43772;HTU21D;59066;54.782;32.024;2023-04-21T04:32:47;9.52;34.33
43772;HTU21D;59066;54.782;32.024;2023-04-21T04:35:17;9.60;34.30
43772;HTU21D;59066;54.782;32.024;2023-04-21T04:37:45;9.67;34.27
43772;HTU21D;59066;54.782;32.024;2023-04-21T04:40:13;9.71;34.20
43772;HTU21D;59066;54.782;32.024;2023-04-21T04:42:41;9.77;34.18
43772;HTU21D;59066;54.782;32.024;2023-04-21T04:45:10;9.83;34.12
43772;HTU21D;59066;54.782;32.024;2023-04-21T04:47:37;9.93;34.06
43772;HTU21D;59066;54.782;32.024;2023-04-21T04:50:05;9.95;34.12
43772;HTU21D;59066;54.782;32.024;2023-04-21T04:52:33;10.06;34.02
43772;HTU21D;59066;54.782;32.024;2023-04-21T04:55:00;10.11;33.95
43772;HTU21D;59066;54.782;32.024;2023-04-21T04:57:29;10.16;33.89
43772;HTU21D;59066;54.782;32.024;2023-04-21T04:59:57;10.21;33.80
43772;HTU21D;59066;54.782;32.024;2023-04-21T05:02:25;10.25;33.76
43772;HTU21D;59066;54.782;32.024;2023-04-21T05:04:52;10.31;33.76
43772;HTU21D;59066;54.782;32.024;2023-04-21T05:07:20;10.39;33.70
43772;HTU21D;59066;54.782;32.024;2023-04-21T05:09:47;10.44;33.75
43772;HTU21D;59066;54.782;32.024;2023-04-21T05:12:15;10.57;33.74
43772;HTU21D;59066;54.782;32.024;2023-04-21T05:14:42;10.66;33.65
43772;HTU21D;59066;54.782;32.024;2023-04-21T05:17:10;10.73;33.51
43772;HTU21D;59066;54.782;32.024;2023-04-21T05:19:38;10.83;33.47
43772;HTU21D;59066;54.782;32.024;2023-04-21T05:22:05;10.93;33.38
43772;HTU21D;59066;54.782;32.024;2023-04-21T05:24:33;11.01;33.34
43772;HTU21D;59066;54.782;32.024;2023-04-21T05:27:01;11.10;33.10
43772;HTU21D;59066;54.782;32.024;2023-04-21T05:29:31;11.17;32.96
43772;HTU21D;59066;54.782;32.024;2023-04-21T05:32:00;11.20;32.77
43772;HTU21D;59066;54.782;32.024;2023-04-21T05:34:28;11.31;32.55
43772;HTU21D;59066;54.782;32.024;2023-04-21T05:36:55;11.40;32.40
43772;HTU21D;59066;54.782;32.024;2023-04-21T05:39:22;11.49;32.28
43772;HTU21D;59066;54.782;32.024;2023-04-21T05:41:50;11.56;32.15
43772;HTU21D;59066;54.782;32.024;2023-04-21T05:44:18;11.66;31.98
43772;HTU21D;59066;54.782;32.024;2023-04-21T05:46:45;11.75;31.99
43772;HTU21D;59066;54.782;32.024;2023-04-21T05:49:13;11.83;31.70
43772;HTU21D;59066;54.782;32.024;2023-04-21T05:51:41;11.94;31.55
43772;HTU21D;59066;54.782;32.024;2023-04-21T05:54:08;12.06;31.34
43772;HTU21D;59066;54.782;32.024;2023-04-21T05:56:36;12.17;31.17
43772;HTU21D;59066;54.782;32.024;2023-04-21T05:59:03;12.27;31.02
43772;HTU21D;59066;54.782;32.024;2023-04-21T06:01:33;12.34;30.71
43772;HTU21D;59066;54.782;32.024;2023-04-21T06:04:02;12.43;30.45
43772;HTU21D;59066;54.782;32.024;2023-04-21T06:06:30;12.52;30.26
43772;HTU21D;59066;54.782;32.024;2023-04-21T06:08:57;12.62;30.03
43772;HTU21D;59066;54.782;32.024;2023-04-21T06:11:25;12.72;29.90
43772;HTU21D;59066;54.782;32.024;2023-04-21T06:13:53;12.78;29.60
43772;HTU21D;59066;54.782;32.024;2023-04-21T06:16:27;12.85;29.28
43772;HTU21D;59066;54.782;32.024;2023-04-21T06:18:55;12.92;29.32
43772;HTU21D;59066;54.782;32.024;2023-04-21T06:21:25;12.97;28.97
43772;HTU21D;59066;54.782;32.024;2023-04-21T06:23:53;13.01;28.78
43772;HTU21D;59066;54.782;32.024;2023-04-21T06:26:21;13.09;28.51
43772;HTU21D;59066;54.782;32.024;2023-04-21T06:28:48;13.12;28.19
43772;HTU21D;59066;54.782;32.024;2023-04-21T06:31:16;13.20;28.08
43772;HTU21D;59066;54.782;32.024;2023-04-21T06:33:45;13.29;27.97
43772;HTU21D;59066;54.782;32.024;2023-04-21T06:36:13;13.31;27.90
43772;HTU21D;59066;54.782;32.024;2023-04-21T06:38:41;13.44;27.82
43772;HTU21D;59066;54.782;32.024;2023-04-21T06:41:09;13.49;27.51
43772;HTU21D;59066;54.782;32.024;2023-04-21T06:43:37;13.59;27.32
43772;HTU21D;59066;54.782;32.024;2023-04-21T06:46:04;13.66;27.06
43772;HTU21D;59066;54.782;32.024;2023-04-21T06:48:32;13.74;26.71
43772;HTU21D;59066;54.782;32.024;2023-04-21T06:50:59;13.77;26.52
43772;HTU21D;59066;54.782;32.024;2023-04-21T06:53:28;13.82;26.51
43772;HTU21D;59066;54.782;32.024;2023-04-21T06:55:56;13.94;26.47
43772;HTU21D;59066;54.782;32.024;2023-04-21T06:58:23;14.00;26.37
43772;HTU21D;59066;54.782;32.024;2023-04-21T07:00:51;14.07;26.28
43772;HTU21D;59066;54.782;32.024;2023-04-21T07:03:19;14.08;26.01
43772;HTU21D;59066;54.782;32.024;2023-04-21T07:05:47;14.14;25.96
43772;HTU21D;59066;54.782;32.024;2023-04-21T07:08:14;14.17;25.78
43772;HTU21D;59066;54.782;32.024;2023-04-21T07:10:42;14.21;25.56
43772;HTU21D;59066;54.782;32.024;2023-04-21T07:13:10;14.26;25.46
43772;HTU21D;59066;54.782;32.024;2023-04-21T07:15:37;14.37;25.30
43772;HTU21D;59066;54.782;32.024;2023-04-21T07:18:05;14.40;25.11
43772;HTU21D;59066;54.782;32.024;2023-04-21T07:20:32;14.44;25.05
43772;HTU21D;59066;54.782;32.024;2023-04-21T07:23:00;14.51;24.82
43772;HTU21D;59066;54.782;32.024;2023-04-21T07:25:28;14.53;24.75
43772;HTU21D;59066;54.782;32.024;2023-04-21T07:27:55;14.59;24.64
43772;HTU21D;59066;54.782;32.024;2023-04-21T07:30:23;14.59;24.39
43772;HTU21D;59066;54.782;32.024;2023-04-21T07:32:51;14.60;24.20
43772;HTU21D;59066;54.782;32.024;2023-04-21T07:35:18;14.68;24.10
43772;HTU21D;59066;54.782;32.024;2023-04-21T07:37:46;14.73;23.91
43772;HTU21D;59066;54.782;32.024;2023-04-21T07:40:13;14.80;23.72
43772;HTU21D;59066;54.782;32.024;2023-04-21T07:42:41;14.87;23.69
43772;HTU21D;59066;54.782;32.024;2023-04-21T07:45:09;14.94;23.69
43772;HTU21D;59066;54.782;32.024;2023-04-21T07:47:37;14.97;23.61
43772;HTU21D;59066;54.782;32.024;2023-04-21T07:50:05;15.03;23.27
43772;HTU21D;59066;54.782;32.024;2023-04-21T07:52:33;15.06;23.28
43772;HTU21D;59066;54.782;32.024;2023-04-21T07:55:00;15.08;23.08
43772;HTU21D;59066;54.782;32.024;2023-04-21T07:57:29;15.12;23.15
43772;HTU21D;59066;54.782;32.024;2023-04-21T08:00:00;15.18;23.30
43772;HTU21D;59066;54.782;32.024;2023-04-21T08:02:38;15.28;23.30
43772;HTU21D;59066;54.782;32.024;2023-04-21T08:05:05;15.38;22.98
43772;HTU21D;59066;54.782;32.024;2023-04-21T08:07:33;15.40;23.10
43772;HTU21D;59066;54.782;32.024;2023-04-21T08:10:01;15.46;23.10
43772;HTU21D;59066;54.782;32.024;2023-04-21T08:12:29;15.65;22.97
43772;HTU21D;59066;54.782;32.024;2023-04-21T08:14:57;15.69;22.85
43772;HTU21D;59066;54.782;32.024;2023-04-21T08:17:24;15.75;22.83
43772;HTU21D;59066;54.782;32.024;2023-04-21T08:19:52;15.75;22.88
43772;HTU21D;59066;54.782;32.024;2023-04-21T08:22:19;15.82;22.73
43772;HTU21D;59066;54.782;32.024;2023-04-21T08:24:47;15.83;22.46
43772;HTU21D;59066;54.782;32.024;2023-04-21T08:27:14;15.89;22.53
43772;HTU21D;59066;54.782;32.024;2023-04-21T08:29:42;16.00;22.43
43772;HTU21D;59066;54.782;32.024;2023-04-21T08:32:10;16.02;22.37
43772;HTU21D;59066;54.782;32.024;2023-04-21T08:34:37;16.08;22.30
43772;HTU21D;59066;54.782;32.024;2023-04-21T08:37:05;16.17;22.21
43772;HTU21D;59066;54.782;32.024;2023-04-21T08:39:35;16.16;22.22
43772;HTU21D;59066;54.782;32.024;2023-04-21T08:42:03;16.18;22.09
43772;HTU21D;59066;54.782;32.024;2023-04-21T08:44:31;16.22;21.92
43772;HTU21D;59066;54.782;32.024;2023-04-21T08:46:58;16.18;22.14
43772;HTU21D;59066;54.782;32.024;2023-04-21T08:49:28;16.33;22.08
43772;HTU21D;59066;54.782;32.024;2023-04-21T08:51:59;16.32;21.78
43772;HTU21D;59066;54.782;32.024;2023-04-21T08:54:26;16.41;21.82
43772;HTU21D;59066;54.782;32.024;2023-04-21T08:56:56;16.32;21.78
43772;HTU21D;59066;54.782;32.024;2023-04-21T08:59:33;16.32;21.95
43772;HTU21D;59066;54.782;32.024;2023-04-21T09:02:15;16.39;21.91
43772;HTU21D;59066;54.782;32.024;2023-04-21T09:04:45;16.37;22.07
43772;HTU21D;59066;54.782;32.024;2023-04-21T09:07:33;16.39;21.89
43772;HTU21D;59066;54.782;32.024;2023-04-21T09:10:03;16.39;22.02
43772;HTU21D;59066;54.782;32.024;2023-04-21T09:12:31;16.55;21.99
43772;HTU21D;59066;54.782;32.024;2023-04-21T09:15:03;16.65;21.92
43772;HTU21D;59066;54.782;32.024;2023-04-21T09:17:31;16.72;22.14
43772;HTU21D;59066;54.782;32.024;2023-04-21T09:20:13;16.82;21.93
43772;HTU21D;59066;54.782;32.024;2023-04-21T09:22:42;16.94;21.98
43772;HTU21D;59066;54.782;32.024;2023-04-21T09:25:15;17.01;21.73
43772;HTU21D;59066;54.782;32.024;2023-04-21T09:27:42;17.02;21.76
43772;HTU21D;59066;54.782;32.024;2023-04-21T09:30:10;17.07;21.79
43772;HTU21D;59066;54.782;32.024;2023-04-21T09:32:39;17.07;21.82
43772;HTU21D;59066;54.782;32.024;2023-04-21T09:35:10;17.21;21.85
43772;HTU21D;59066;54.782;32.024;2023-04-21T09:37:38;17.28;21.92
43772;HTU21D;59066;54.782;32.024;2023-04-21T09:40:06;17.32;21.84
43772;HTU21D;59066;54.782;32.024;2023-04-21T09:42:34;17.36;21.82
43772;HTU21D;59066;54.782;32.024;2023-04-21T09:45:06;17.48;21.81
43772;HTU21D;59066;54.782;32.024;2023-04-21T09:47:40;17.61;21.82
43772;HTU21D;59066;54.782;32.024;2023-04-21T09:50:11;17.69;21.79
43772;HTU21D;59066;54.782;32.024;2023-04-21T09:52:39;17.78;21.71
43772;HTU21D;59066;54.782;32.024;2023-04-21T09:55:12;17.75;21.79
43772;HTU21D;59066;54.782;32.024;2023-04-21T09:57:41;17.92;21.66
43772;HTU21D;59066;54.782;32.024;2023-04-21T10:00:12;18.20;21.63
43772;HTU21D;59066;54.782;32.024;2023-04-21T10:02:43;18.79;21.79
43772;HTU21D;59066;54.782;32.024;2023-04-21T10:05:11;19.63;22.02
43772;HTU21D;59066;54.782;32.024;2023-04-21T10:07:39;20.54;21.94
43772;HTU21D;59066;54.782;32.024;2023-04-21T10:10:16;21.33;20.73
43772;HTU21D;59066;54.782;32.024;2023-04-21T10:12:45;22.40;20.71
43772;HTU21D;59066;54.782;32.024;2023-04-21T10:15:31;23.27;17.62
43772;HTU21D;59066;54.782;32.024;2023-04-21T10:20:55;24.61;16.60
43772;HTU21D;59066;54.782;32.024;2023-04-21T10:23:31;24.92;17.29
43772;HTU21D;59066;54.782;32.024;2023-04-21T10:26:07;25.58;15.51
43772;HTU21D;59066;54.782;32.024;2023-04-21T10:29:01;26.35;14.58
43772;HTU21D;59066;54.782;32.024;2023-04-21T10:31:36;26.96;14.65
43772;HTU21D;59066;54.782;32.024;2023-04-21T10:36:34;27.49;14.14
43772;HTU21D;59066;54.782;32.024;2023-04-21T10:39:03;27.68;13.66
43772;HTU21D;59066;54.782;32.024;2023-04-21T10:41:33;28.10;13.14
43772;HTU21D;59066;54.782;32.024;2023-04-21T10:44:12;28.32;11.91
43772;HTU21D;59066;54.782;32.024;2023-04-21T10:46:45;28.47;11.86
43772;HTU21D;59066;54.782;32.024;2023-04-21T10:54:36;28.60;11.74
43772;HTU21D;59066;54.782;32.024;2023-04-21T10:57:05;28.24;11.91
43772;HTU21D;59066;54.782;32.024;2023-04-21T10:59:34;28.71;11.74
43772;HTU21D;59066;54.782;32.024;2023-04-21T11:02:04;29.32;11.45
43772;HTU21D;59066;54.782;32.024;2023-04-21T11:04:34;29.49;11.40
43772;HTU21D;59066;54.782;32.024;2023-04-21T11:09:41;30.36;10.53
43772;HTU21D;59066;54.782;32.024;2023-04-21T11:12:14;29.59;10.38
43772;HTU21D;59066;54.782;32.024;2023-04-21T11:14:44;28.94;10.72
43772;HTU21D;59066;54.782;32.024;2023-04-21T11:17:17;28.13;10.80
43772;HTU21D;59066;54.782;32.024;2023-04-21T11:19:50;28.54;10.59
43772;HTU21D;59066;54.782;32.024;2023-04-21T11:22:22;28.40;10.73
43772;HTU21D;59066;54.782;32.024;2023-04-21T11:24:54;28.56;10.85
43772;HTU21D;59066;54.782;32.024;2023-04-21T11:27:26;28.54;10.69
43772;HTU21D;59066;54.782;32.024;2023-04-21T11:29:54;27.88;10.97
43772;HTU21D;59066;54.782;32.024;2023-04-21T11:32:21;27.05;11.46
43772;HTU21D;59066;54.782;32.024;2023-04-21T11:34:49;26.42;11.86
43772;HTU21D;59066;54.782;32.024;2023-04-21T11:37:22;26.15;12.33
43772;HTU21D;59066;54.782;32.024;2023-04-21T11:39:58;26.10;12.67
43772;HTU21D;59066;54.782;32.024;2023-04-21T11:42:27;26.10;12.63
43772;HTU21D;59066;54.782;32.024;2023-04-21T11:44:55;26.84;12.50
43772;HTU21D;59066;54.782;32.024;2023-04-21T11:47:24;27.64;12.21
43772;HTU21D;59066;54.782;32.024;2023-04-21T11:49:57;28.23;11.61
43772;HTU21D;59066;54.782;32.024;2023-04-21T11:55:14;28.61;11.35
43772;HTU21D;59066;54.782;32.024;2023-04-21T11:57:44;28.32;11.80
43772;HTU21D;59066;54.782;32.024;2023-04-21T12:00:12;27.56;12.05
43772;HTU21D;59066;54.782;32.024;2023-04-21T12:02:42;27.40;12.28
43772;HTU21D;59066;54.782;32.024;2023-04-21T12:05:11;28.04;12.13
43772;HTU21D;59066;54.782;32.024;2023-04-21T12:07:45;29.08;11.31
43772;HTU21D;59066;54.782;32.024;2023-04-21T12:10:17;29.63;11.27
43772;HTU21D;59066;54.782;32.024;2023-04-21T12:12:46;29.32;11.29
43772;HTU21D;59066;54.782;32.024;2023-04-21T12:15:20;28.92;11.14
43772;HTU21D;59066;54.782;32.024;2023-04-21T12:17:51;28.09;11.56
43772;HTU21D;59066;54.782;32.024;2023-04-21T12:20:20;27.21;11.92
43772;HTU21D;59066;54.782;32.024;2023-04-21T12:22:48;26.40;12.33
43772;HTU21D;59066;54.782;32.024;2023-04-21T12:25:16;26.85;12.46
43772;HTU21D;59066;54.782;32.024;2023-04-21T12:27:51;27.79;12.30
43772;HTU21D;59066;54.782;32.024;2023-04-21T12:30:20;28.16;12.17
43772;HTU21D;59066;54.782;32.024;2023-04-21T12:32:47;28.54;11.97
43772;HTU21D;59066;54.782;32.024;2023-04-21T12:35:15;28.13;12.06
43772;HTU21D;59066;54.782;32.024;2023-04-21T12:37:43;27.52;12.43
43772;HTU21D;59066;54.782;32.024;2023-04-21T12:40:11;26.86;12.70
43772;HTU21D;59066;54.782;32.024;2023-04-21T12:42:39;26.18;13.03
43772;HTU21D;59066;54.782;32.024;2023-04-21T12:45:07;25.60;13.40
43772;HTU21D;59066;54.782;32.024;2023-04-21T12:47:35;25.33;13.65
43772;HTU21D;59066;54.782;32.024;2023-04-21T12:50:04;25.25;14.00
43772;HTU21D;59066;54.782;32.024;2023-04-21T12:52:32;24.88;14.10
43772;HTU21D;59066;54.782;32.024;2023-04-21T12:54:59;24.35;14.56
43772;HTU21D;59066;54.782;32.024;2023-04-21T12:57:27;23.81;15.19
43772;HTU21D;59066;54.782;32.024;2023-04-21T12:59:55;23.38;15.51
43772;HTU21D;59066;54.782;32.024;2023-04-21T13:02:22;22.99;15.95
43772;HTU21D;59066;54.782;32.024;2023-04-21T13:04:50;22.69;16.30
43772;HTU21D;59066;54.782;32.024;2023-04-21T13:07:18;22.53;16.56
43772;HTU21D;59066;54.782;32.024;2023-04-21T13:09:48;22.56;16.79
43772;HTU21D;59066;54.782;32.024;2023-04-21T13:12:15;22.87;16.92
43772;HTU21D;59066;54.782;32.024;2023-04-21T13:14:43;23.84;16.75
43772;HTU21D;59066;54.782;32.024;2023-04-21T13:17:10;24.72;16.31
43772;HTU21D;59066;54.782;32.024;2023-04-21T13:19:38;24.79;16.15
43772;HTU21D;59066;54.782;32.024;2023-04-21T13:22:06;24.41;16.06
43772;HTU21D;59066;54.782;32.024;2023-04-21T13:24:34;23.97;16.20
43772;HTU21D;59066;54.782;32.024;2023-04-21T13:27:01;23.34;16.61
43772;HTU21D;59066;54.782;32.024;2023-04-21T13:29:29;23.06;16.92
43772;HTU21D;59066;54.782;32.024;2023-04-21T13:32:04;22.91;17.55
43772;HTU21D;59066;54.782;32.024;2023-04-21T13:34:33;22.73;17.42
43772;HTU21D;59066;54.782;32.024;2023-04-21T13:37:01;22.94;17.35
43772;HTU21D;59066;54.782;32.024;2023-04-21T13:39:29;22.99;17.34
43772;HTU21D;59066;54.782;32.024;2023-04-21T13:41:56;22.90;17.45
43772;HTU21D;59066;54.782;32.024;2023-04-21T13:44:24;22.67;17.74
43772;HTU21D;59066;54.782;32.024;2023-04-21T13:46:52;22.42;17.91
43772;HTU21D;59066;54.782;32.024;2023-04-21T13:49:20;22.33;18.28
43772;HTU21D;59066;54.782;32.024;2023-04-21T13:51:48;22.17;18.37
43772;HTU21D;59066;54.782;32.024;2023-04-21T13:54:15;21.99;18.57
43772;HTU21D;59066;54.782;32.024;2023-04-21T13:56:43;21.95;18.71
43772;HTU21D;59066;54.782;32.024;2023-04-21T13:59:10;21.91;18.86
43772;HTU21D;59066;54.782;32.024;2023-04-21T14:01:41;21.85;18.99
43772;HTU21D;59066;54.782;32.024;2023-04-21T14:04:08;21.75;19.18
43772;HTU21D;59066;54.782;32.024;2023-04-21T14:06:36;21.74;19.31
43772;HTU21D;59066;54.782;32.024;2023-04-21T14:09:03;21.78;19.30
43772;HTU21D;59066;54.782;32.024;2023-04-21T14:11:32;21.87;19.34
43772;HTU21D;59066;54.782;32.024;2023-04-21T14:14:00;21.79;19.41
43772;HTU21D;59066;54.782;32.024;2023-04-21T14:16:35;21.72;19.41
43772;HTU21D;59066;54.782;32.024;2023-04-21T14:19:03;21.63;19.57
43772;HTU21D;59066;54.782;32.024;2023-04-21T14:21:30;21.88;19.54
43772;HTU21D;59066;54.782;32.024;2023-04-21T14:23:58;22.04;19.66
43772;HTU21D;59066;54.782;32.024;2023-04-21T14:26:26;22.10;19.70
43772;HTU21D;59066;54.782;32.024;2023-04-21T14:28:53;22.08;19.79
43772;HTU21D;59066;54.782;32.024;2023-04-21T14:31:21;22.13;19.84
43772;HTU21D;59066;54.782;32.024;2023-04-21T14:33:49;22.28;19.89
43772;HTU21D;59066;54.782;32.024;2023-04-21T14:36:16;22.68;19.66
43772;HTU21D;59066;54.782;32.024;2023-04-21T14:38:44;22.90;19.62
43772;HTU21D;59066;54.782;32.024;2023-04-21T14:41:12;22.87;19.51
43772;HTU21D;59066;54.782;32.024;2023-04-21T14:43:40;22.88;19.38
43772;HTU21D;59066;54.782;32.024;2023-04-21T14:46:07;22.84;19.41
43772;HTU21D;59066;54.782;32.024;2023-04-21T14:48:35;23.05;19.28
43772;HTU21D;59066;54.782;32.024;2023-04-21T14:51:03;23.08;19.05
43772;HTU21D;59066;54.782;32.024;2023-04-21T14:53:32;23.18;18.78
43772;HTU21D;59066;54.782;32.024;2023-04-21T14:56:00;23.27;18.65
43772;HTU21D;59066;54.782;32.024;2023-04-21T14:58:28;22.92;18.78
43772;HTU21D;59066;54.782;32.024;2023-04-21T15:00:55;22.44;19.00
43772;HTU21D;59066;54.782;32.024;2023-04-21T15:03:23;22.09;19.24
43772;HTU21D;59066;54.782;32.024;2023-04-21T15:05:50;21.75;19.46
43772;HTU21D;59066;54.782;32.024;2023-04-21T15:08:18;21.39;19.76
43772;HTU21D;59066;54.782;32.024;2023-04-21T15:10:46;21.09;20.01
43772;HTU21D;59066;54.782;32.024;2023-04-21T15:13:14;20.80;20.38
43772;HTU21D;59066;54.782;32.024;2023-04-21T15:15:41;20.65;20.44
43772;HTU21D;59066;54.782;32.024;2023-04-21T15:18:09;20.56;20.54
43772;HTU21D;59066;54.782;32.024;2023-04-21T15:20:37;20.89;20.33
43772;HTU21D;59066;54.782;32.024;2023-04-21T15:23:11;20.87;20.25
43772;HTU21D;59066;54.782;32.024;2023-04-21T15:25:39;20.61;20.36
43772;HTU21D;59066;54.782;32.024;2023-04-21T15:28:07;20.45;20.59
43772;HTU21D;59066;54.782;32.024;2023-04-21T15:30:35;20.27;20.89